Farwell, Minnesota
Current Conditions -  °F | °C
As of 10:12 AM on Friday 19 Dec 2014 (Local Time) from KAXN Reporting Station
Haze Haze  
Wind Chill: 14°   Ceiling: 300
Heat Index: 25°   Visibility: 1.2mi
Dew Point: 23°   Wind: 13mph
Humidity: 92%   Direction: 150°SSE
Pressure: 30.13"   Gusts: NA
Location:  45.75°N, 95.62°W
Report Text: KAXN 191612Z AUTO 15011KT 1 1/4SM BR OVC003 M04/M05 A3013 RMK AO2 I1002 T10391050
Loading
Personal Weather Stations






























Interactive Weather Map New forecast layout! Learn more

10-Day Weather Forecast

Advertisements
Track Severe Weather on mobile